sensor_id;sensor_type;location;lat;lon;timestamp;pressure;altitude;pressure_sealevel;temperature;humidity
24746;BME280;12845;52.042;6.838;2023-04-02T00:00:34;-18189.63;;;6.00;100.00
24746;BME280;12845;52.042;6.838;2023-04-02T00:03:04;-18188.78;;;5.97;100.00
24746;BME280;12845;52.042;6.838;2023-04-02T00:05:39;-18189.22;;;5.99;100.00
24746;BME280;12845;52.042;6.838;2023-04-02T00:08:28;-18188.38;;;5.96;100.00
24746;BME280;12845;52.042;6.838;2023-04-02T00:11:03;-18186.31;;;5.88;100.00
24746;BME280;12845;52.042;6.838;2023-04-02T00:13:32;-18186.84;;;5.90;100.00
24746;BME280;12845;52.042;6.838;2023-04-02T00:16:00;-18184.91;;;5.83;100.00
24746;BME280;12845;52.042;6.838;2023-04-02T00:18:27;-18185.63;;;5.85;100.00
24746;BME280;12845;52.042;6.838;2023-04-02T00:21:08;-18183.81;;;5.79;100.00
24746;BME280;12845;52.042;6.838;2023-04-02T00:23:37;-18183.53;;;5.78;100.00
24746;BME280;12845;52.042;6.838;2023-04-02T00:26:20;-18183.97;;;5.79;100.00
24746;BME280;12845;52.042;6.838;2023-04-02T00:28:46;-18183.69;;;5.78;100.00
24746;BME280;12845;52.042;6.838;2023-04-02T00:31:31;-18183.81;;;5.79;100.00
24746;BME280;12845;52.042;6.838;2023-04-02T00:33:58;-18184.09;;;5.80;100.00
24746;BME280;12845;52.042;6.838;2023-04-02T00:36:28;-18181.19;;;5.69;100.00
24746;BME280;12845;52.042;6.838;2023-04-02T00:38:54;-18181.63;;;5.71;100.00
24746;BME280;12845;52.042;6.838;2023-04-02T00:41:25;-18180.66;;;5.67;100.00
24746;BME280;12845;52.042;6.838;2023-04-02T00:43:54;-18181.19;;;5.69;100.00
24746;BME280;12845;52.042;6.838;2023-04-02T00:46:26;-18180.66;;;5.67;100.00
24746;BME280;12845;52.042;6.838;2023-04-02T00:51:27;-18180.50;;;5.66;100.00
24746;BME280;12845;52.042;6.838;2023-04-02T00:53:57;-18177.75;;;5.56;100.00
24746;BME280;12845;52.042;6.838;2023-04-02T00:56:29;-18178.31;;;5.58;100.00
24746;BME280;12845;52.042;6.838;2023-04-02T00:58:56;-18177.63;;;5.56;100.00
24746;BME280;12845;52.042;6.838;2023-04-02T01:01:25;-18178.84;;;5.60;100.00
24746;BME280;12845;52.042;6.838;2023-04-02T01:03:56;-18178.44;;;5.59;100.00
24746;BME280;12845;52.042;6.838;2023-04-02T01:06:24;-18177.19;;;5.54;100.00
24746;BME280;12845;52.042;6.838;2023-04-02T01:22:25;-18173.63;;;5.41;100.00
24746;BME280;12845;52.042;6.838;2023-04-02T01:24:59;-18173.47;;;5.40;100.00
24746;BME280;12845;52.042;6.838;2023-04-02T01:27:31;-18171.81;;;5.34;100.00
24746;BME280;12845;52.042;6.838;2023-04-02T01:29:59;-18170.56;;;5.30;100.00
24746;BME280;12845;52.042;6.838;2023-04-02T01:32:27;-18170.84;;;5.31;100.00
24746;BME280;12845;52.042;6.838;2023-04-02T01:34:55;-18170.56;;;5.30;100.00
24746;BME280;12845;52.042;6.838;2023-04-02T01:45:36;-18164.63;;;5.08;100.00
24746;BME280;12845;52.042;6.838;2023-04-02T01:48:10;-18165.47;;;5.11;100.00
24746;BME280;12845;52.042;6.838;2023-04-02T01:50:39;-18163.94;;;5.05;100.00
24746;BME280;12845;52.042;6.838;2023-04-02T01:53:08;-18163.94;;;5.05;100.00
24746;BME280;12845;52.042;6.838;2023-04-02T01:58:03;-18164.50;;;5.07;100.00
24746;BME280;12845;52.042;6.838;2023-04-02T02:00:30;-18164.50;;;5.07;100.00
24746;BME280;12845;52.042;6.838;2023-04-02T02:02:58;-18163.94;;;5.05;100.00
24746;BME280;12845;52.042;6.838;2023-04-02T02:05:24;-18162.28;;;4.99;100.00
24746;BME280;12845;52.042;6.838;2023-04-02T02:07:51;-18164.78;;;5.08;100.00
24746;BME280;12845;52.042;6.838;2023-04-02T02:10:31;-18163.53;;;5.04;100.00
24746;BME280;12845;52.042;6.838;2023-04-02T02:12:57;-18165.31;;;5.10;100.00
24746;BME280;12845;52.042;6.838;2023-04-02T02:15:24;-18165.59;;;5.11;100.00
24746;BME280;12845;52.042;6.838;2023-04-02T02:17:56;-18166.28;;;5.14;100.00
24746;BME280;12845;52.042;6.838;2023-04-02T02:20:22;-18166.97;;;5.16;100.00
24746;BME280;12845;52.042;6.838;2023-04-02T02:22:49;-18166.28;;;5.14;100.00
24746;BME280;12845;52.042;6.838;2023-04-02T02:25:18;-18163.81;;;5.05;100.00
24746;BME280;12845;52.042;6.838;2023-04-02T02:27:46;-18162.97;;;5.02;100.00
24746;BME280;12845;52.042;6.838;2023-04-02T02:32:48;-18160.63;;;4.93;100.00
24746;BME280;12845;52.042;6.838;2023-04-02T02:35:22;-18161.31;;;4.95;100.00
24746;BME280;12845;52.042;6.838;2023-04-02T02:37:59;-18163.25;;;5.03;100.00
24746;BME280;12845;52.042;6.838;2023-04-02T02:40:33;-18160.09;;;4.91;100.00
24746;BME280;12845;52.042;6.838;2023-04-02T02:43:02;-18158.28;;;4.84;100.00
24746;BME280;12845;52.042;6.838;2023-04-02T02:45:34;-18156.63;;;4.78;100.00
24746;BME280;12845;52.042;6.838;2023-04-02T02:48:02;-18153.72;;;4.67;100.00
24746;BME280;12845;52.042;6.838;2023-04-02T02:50:30;-18154.44;;;4.70;100.00
24746;BME280;12845;52.042;6.838;2023-04-02T02:52:58;-18154.84;;;4.71;100.00
24746;BME280;12845;52.042;6.838;2023-04-02T02:55:28;-18155.25;;;4.73;100.00
24746;BME280;12845;52.042;6.838;2023-04-02T02:58:02;-18155.38;;;4.73;100.00
24746;BME280;12845;52.042;6.838;2023-04-02T03:00:31;-18154.00;;;4.68;100.00
24746;BME280;12845;52.042;6.838;2023-04-02T03:02:58;-18151.94;;;4.61;100.00
24746;BME280;12845;52.042;6.838;2023-04-02T03:05:25;-18151.66;;;4.60;100.00
24746;BME280;12845;52.042;6.838;2023-04-02T03:07:54;-18151.53;;;4.59;100.00
24746;BME280;12845;52.042;6.838;2023-04-02T03:10:33;-18150.00;;;4.53;100.00
24746;BME280;12845;52.042;6.838;2023-04-02T03:15:58;-18149.44;;;4.51;100.00
24746;BME280;12845;52.042;6.838;2023-04-02T03:21:09;-18147.94;;;4.46;100.00
24746;BME280;12845;52.042;6.838;2023-04-02T03:23:41;-18148.91;;;4.49;100.00
24746;BME280;12845;52.042;6.838;2023-04-02T03:26:18;-18148.63;;;4.48;100.00
24746;BME280;12845;52.042;6.838;2023-04-02T03:29:03;-18150.41;;;4.55;100.00
24746;BME280;12845;52.042;6.838;2023-04-02T03:31:34;-18148.47;;;4.48;100.00
24746;BME280;12845;52.042;6.838;2023-04-02T03:34:12;-18146.56;;;4.41;100.00
24746;BME280;12845;52.042;6.838;2023-04-02T03:37:28;-18147.94;;;4.46;100.00
24746;BME280;12845;52.042;6.838;2023-04-02T03:39:36;-18145.44;;;4.37;100.00
24746;BME280;12845;52.042;6.838;2023-04-02T03:44:38;-18143.50;;;4.29;100.00
24746;BME280;12845;52.042;6.838;2023-04-02T03:47:34;-18145.16;;;4.36;100.00
24746;BME280;12845;52.042;6.838;2023-04-02T03:50:06;-18142.81;;;4.27;100.00
24746;BME280;12845;52.042;6.838;2023-04-02T03:52:35;-18141.03;;;4.20;100.00
24746;BME280;12845;52.042;6.838;2023-04-02T03:55:10;-18142.41;;;4.25;100.00
24746;BME280;12845;52.042;6.838;2023-04-02T03:58:08;-18140.75;;;4.19;100.00
24746;BME280;12845;52.042;6.838;2023-04-02T04:00:38;-18139.91;;;4.16;100.00
24746;BME280;12845;52.042;6.838;2023-04-02T04:03:14;-18138.81;;;4.12;100.00
24746;BME280;12845;52.042;6.838;2023-04-02T04:05:51;-18138.53;;;4.11;100.00
24746;BME280;12845;52.042;6.838;2023-04-02T04:08:22;-18135.50;;;4.00;100.00
24746;BME280;12845;52.042;6.838;2023-04-02T04:10:52;-18133.84;;;3.94;100.00
24746;BME280;12845;52.042;6.838;2023-04-02T04:13:27;-18132.19;;;3.88;100.00
24746;BME280;12845;52.042;6.838;2023-04-02T04:18:40;-18132.47;;;3.89;100.00
24746;BME280;12845;52.042;6.838;2023-04-02T04:21:17;-18131.78;;;3.86;100.00
24746;BME280;12845;52.042;6.838;2023-04-02T04:23:47;-18133.72;;;3.93;100.00
24746;BME280;12845;52.042;6.838;2023-04-02T04:26:35;-18130.53;;;3.81;100.00
24746;BME280;12845;52.042;6.838;2023-04-02T04:29:14;-18130.25;;;3.80;100.00
24746;BME280;12845;52.042;6.838;2023-04-02T04:31:45;-18128.59;;;3.74;100.00
24746;BME280;12845;52.042;6.838;2023-04-02T04:34:22;-18125.97;;;3.65;100.00
24746;BME280;12845;52.042;6.838;2023-04-02T04:36:56;-18127.06;;;3.69;100.00
24746;BME280;12845;52.042;6.838;2023-04-02T04:39:42;-18128.31;;;3.73;100.00
24746;BME280;12845;52.042;6.838;2023-04-02T04:42:17;-18126.25;;;3.66;100.00
24746;BME280;12845;52.042;6.838;2023-04-02T04:44:54;-18126.38;;;3.66;100.00
24746;BME280;12845;52.042;6.838;2023-04-02T04:47:32;-18124.44;;;3.59;100.00
24746;BME280;12845;52.042;6.838;2023-04-02T04:50:07;-18123.75;;;3.56;100.00
24746;BME280;12845;52.042;6.838;2023-04-02T04:52:38;-18123.63;;;3.56;100.00
24746;BME280;12845;52.042;6.838;2023-04-02T04:55:33;-18123.06;;;3.54;100.00
24746;BME280;12845;52.042;6.838;2023-04-02T04:58:09;-18121.69;;;3.49;100.00
24746;BME280;12845;52.042;6.838;2023-04-02T05:05:52;-18117.41;;;3.33;100.00
24746;BME280;12845;52.042;6.838;2023-04-02T05:08:21;-18117.94;;;3.35;100.00
24746;BME280;12845;52.042;6.838;2023-04-02T05:10:50;-18116.28;;;3.29;100.00
24746;BME280;12845;52.042;6.838;2023-04-02T05:13:21;-18116.28;;;3.29;100.00
24746;BME280;12845;52.042;6.838;2023-04-02T05:16:03;-18115.88;;;3.27;100.00
24746;BME280;12845;52.042;6.838;2023-04-02T05:18:39;-18115.88;;;3.27;100.00
24746;BME280;12845;52.042;6.838;2023-04-02T05:24:27;-18114.22;;;3.21;100.00
24746;BME280;12845;52.042;6.838;2023-04-02T05:27:00;-18112.44;;;3.14;100.00
24746;BME280;12845;52.042;6.838;2023-04-02T05:29:32;-18111.19;;;3.10;100.00
24746;BME280;12845;52.042;6.838;2023-04-02T05:32:08;-18112.00;;;3.13;100.00
24746;BME280;12845;52.042;6.838;2023-04-02T05:34:37;-18112.44;;;3.14;100.00
24746;BME280;12845;52.042;6.838;2023-04-02T05:37:05;-18112.00;;;3.13;100.00
24746;BME280;12845;52.042;6.838;2023-04-02T05:39:30;-18110.91;;;3.09;100.00
24746;BME280;12845;52.042;6.838;2023-04-02T05:42:06;-18113.94;;;3.20;100.00
24746;BME280;12845;52.042;6.838;2023-04-02T05:44:37;-18110.50;;;3.07;100.00
24746;BME280;12845;52.042;6.838;2023-04-02T05:47:20;-18110.06;;;3.06;100.00
24746;BME280;12845;52.042;6.838;2023-04-02T05:52:22;-18110.06;;;3.06;100.00
24746;BME280;12845;52.042;6.838;2023-04-02T05:54:57;-18109.53;;;3.04;100.00
24746;BME280;12845;52.042;6.838;2023-04-02T05:57:36;-18109.66;;;3.04;100.00
24746;BME280;12845;52.042;6.838;2023-04-02T06:00:06;-18108.69;;;3.01;100.00
24746;BME280;12845;52.042;6.838;2023-04-02T06:02:43;-18109.66;;;3.04;100.00
24746;BME280;12845;52.042;6.838;2023-04-02T06:05:22;-18110.91;;;3.09;100.00
24746;BME280;12845;52.042;6.838;2023-04-02T06:10:56;-18108.28;;;2.99;100.00
24746;BME280;12845;52.042;6.838;2023-04-02T06:13:24;-18108.56;;;3.00;100.00
24746;BME280;12845;52.042;6.838;2023-04-02T06:15:49;-18108.00;;;2.98;100.00
24746;BME280;12845;52.042;6.838;2023-04-02T06:18:22;-18107.72;;;2.97;100.00
24746;BME280;12845;52.042;6.838;2023-04-02T06:20:48;-18109.25;;;3.03;100.00
24746;BME280;12845;52.042;6.838;2023-04-02T06:28:49;-18109.53;;;3.04;100.00
24746;BME280;12845;52.042;6.838;2023-04-02T06:31:40;-18108.00;;;2.98;100.00
24746;BME280;12845;52.042;6.838;2023-04-02T06:34:14;-18111.47;;;3.11;100.00
24746;BME280;12845;52.042;6.838;2023-04-02T06:36:40;-18111.03;;;3.09;100.00
24746;BME280;12845;52.042;6.838;2023-04-02T06:39:17;-18111.59;;;3.11;100.00
24746;BME280;12845;52.042;6.838;2023-04-02T06:41:42;-18111.19;;;3.10;100.00
24746;BME280;12845;52.042;6.838;2023-04-02T06:44:17;-18109.25;;;3.03;100.00
24746;BME280;12845;52.042;6.838;2023-04-02T06:46:49;-18109.94;;;3.05;100.00
24746;BME280;12845;52.042;6.838;2023-04-02T06:51:55;-18109.66;;;3.04;100.00
24746;BME280;12845;52.042;6.838;2023-04-02T06:54:23;-18109.25;;;3.03;100.00
24746;BME280;12845;52.042;6.838;2023-04-02T06:56:50;-18110.34;;;3.07;100.00
24746;BME280;12845;52.042;6.838;2023-04-02T06:59:17;-18108.69;;;3.01;100.00
24746;BME280;12845;52.042;6.838;2023-04-02T07:01:56;-18111.47;;;3.11;100.00
24746;BME280;12845;52.042;6.838;2023-04-02T07:04:23;-18109.53;;;3.04;100.00
24746;BME280;12845;52.042;6.838;2023-04-02T07:06:49;-18109.66;;;3.04;100.00
24746;BME280;12845;52.042;6.838;2023-04-02T07:09:15;-18110.63;;;3.08;100.00
24746;BME280;12845;52.042;6.838;2023-04-02T07:11:41;-18111.03;;;3.09;100.00
24746;BME280;12845;52.042;6.838;2023-04-02T07:14:10;-18111.59;;;3.11;100.00
24746;BME280;12845;52.042;6.838;2023-04-02T07:16:36;-18112.97;;;3.16;100.00
24746;BME280;12845;52.042;6.838;2023-04-02T07:19:02;-18113.94;;;3.20;100.00
24746;BME280;12845;52.042;6.838;2023-04-02T07:21:28;-18115.06;;;3.24;100.00
24746;BME280;12845;52.042;6.838;2023-04-02T07:23:54;-18115.06;;;3.24;100.00
24746;BME280;12845;52.042;6.838;2023-04-02T07:26:22;-18116.16;;;3.28;100.00
24746;BME280;12845;52.042;6.838;2023-04-02T07:28:50;-18114.63;;;3.23;100.00
24746;BME280;12845;52.042;6.838;2023-04-02T07:31:19;-18113.53;;;3.19;100.00
24746;BME280;12845;52.042;6.838;2023-04-02T07:33:46;-18115.88;;;3.27;100.00
24746;BME280;12845;52.042;6.838;2023-04-02T07:36:20;-18118.09;;;3.35;100.00
24746;BME280;12845;52.042;6.838;2023-04-02T07:38:46;-18117.41;;;3.33;100.00
24746;BME280;12845;52.042;6.838;2023-04-02T07:41:12;-18117.53;;;3.33;100.00
24746;BME280;12845;52.042;6.838;2023-04-02T07:43:38;-18119.34;;;3.40;100.00
24746;BME280;12845;52.042;6.838;2023-04-02T07:46:05;-18120.56;;;3.45;100.00
24746;BME280;12845;52.042;6.838;2023-04-02T07:48:31;-18122.78;;;3.53;100.00
24746;BME280;12845;52.042;6.838;2023-04-02T07:50:57;-18121.41;;;3.48;100.00
24746;BME280;12845;52.042;6.838;2023-04-02T07:55:59;-18121.41;;;3.48;100.00
24746;BME280;12845;52.042;6.838;2023-04-02T07:58:25;-18123.75;;;3.56;100.00
24746;BME280;12845;52.042;6.838;2023-04-02T08:00:51;-18125.13;;;3.61;100.00
24746;BME280;12845;52.042;6.838;2023-04-02T08:03:16;-18122.78;;;3.53;100.00
24746;BME280;12845;52.042;6.838;2023-04-02T08:05:42;-18125.56;;;3.63;100.00
24746;BME280;12845;52.042;6.838;2023-04-02T08:08:07;-18127.78;;;3.71;100.00
24746;BME280;12845;52.042;6.838;2023-04-02T08:10:33;-18128.19;;;3.73;100.00
24746;BME280;12845;52.042;6.838;2023-04-02T08:12:58;-18129.28;;;3.77;100.00
24746;BME280;12845;52.042;6.838;2023-04-02T08:15:24;-18128.59;;;3.74;100.00
24746;BME280;12845;52.042;6.838;2023-04-02T08:17:49;-18130.53;;;3.81;100.00
24746;BME280;12845;52.042;6.838;2023-04-02T08:20:20;-18129.84;;;3.79;100.00
24746;BME280;12845;52.042;6.838;2023-04-02T08:22:47;-18127.91;;;3.72;100.00
24746;BME280;12845;52.042;6.838;2023-04-02T08:25:13;-18127.50;;;3.70;100.00
24746;BME280;12845;52.042;6.838;2023-04-02T08:27:38;-18129.69;;;3.78;100.00
24746;BME280;12845;52.042;6.838;2023-04-02T08:30:05;-18131.22;;;3.84;100.00
24746;BME280;12845;52.042;6.838;2023-04-02T08:32:32;-18133.00;;;3.91;100.00
24746;BME280;12845;52.042;6.838;2023-04-02T08:34:58;-18130.81;;;3.82;100.00
24746;BME280;12845;52.042;6.838;2023-04-02T08:37:23;-18130.81;;;3.82;100.00
24746;BME280;12845;52.042;6.838;2023-04-02T08:39:49;-18131.34;;;3.84;100.00
24746;BME280;12845;52.042;6.838;2023-04-02T08:42:33;-18131.50;;;3.85;100.00
24746;BME280;12845;52.042;6.838;2023-04-02T08:47:47;-18132.19;;;3.88;100.00
24746;BME280;12845;52.042;6.838;2023-04-02T08:52:58;-18130.38;;;3.81;100.00
24746;BME280;12845;52.042;6.838;2023-04-02T08:55:40;-18130.66;;;3.82;100.00
24746;BME280;12845;52.042;6.838;2023-04-02T08:58:39;-18133.72;;;3.93;100.00
24746;BME280;12845;52.042;6.838;2023-04-02T09:03:47;-18130.13;;;3.80;100.00
24746;BME280;12845;52.042;6.838;2023-04-02T09:06:17;-18129.56;;;3.78;100.00
24746;BME280;12845;52.042;6.838;2023-04-02T09:08:45;-18130.38;;;3.81;100.00
24746;BME280;12845;52.042;6.838;2023-04-02T09:13:49;-18129.56;;;3.78;100.00
24746;BME280;12845;52.042;6.838;2023-04-02T09:16:18;-18129.00;;;3.76;100.00
24746;BME280;12845;52.042;6.838;2023-04-02T09:18:48;-18131.09;;;3.83;100.00
24746;BME280;12845;52.042;6.838;2023-04-02T09:23:46;-18131.50;;;3.85;100.00
24746;BME280;12845;52.042;6.838;2023-04-02T09:26:21;-18133.00;;;3.91;100.00
24746;BME280;12845;52.042;6.838;2023-04-02T09:28:49;-18130.66;;;3.82;100.00
24746;BME280;12845;52.042;6.838;2023-04-02T09:31:25;-18134.66;;;3.97;100.00
24746;BME280;12845;52.042;6.838;2023-04-02T09:33:54;-18136.06;;;4.02;100.00
24746;BME280;12845;52.042;6.838;2023-04-02T09:36:35;-18136.47;;;4.03;100.00
24746;BME280;12845;52.042;6.838;2023-04-02T09:39:18;-18139.09;;;4.13;100.00
24746;BME280;12845;52.042;6.838;2023-04-02T09:41:44;-18139.91;;;4.16;100.00
24746;BME280;12845;52.042;6.838;2023-04-02T09:46:36;-18138.53;;;4.11;100.00
24746;BME280;12845;52.042;6.838;2023-04-02T09:49:01;-18138.00;;;4.09;100.00
24746;BME280;12845;52.042;6.838;2023-04-02T09:51:30;-18141.03;;;4.20;100.00
24746;BME280;12845;52.042;6.838;2023-04-02T09:56:26;-18147.78;;;4.45;100.00
24746;BME280;12845;52.042;6.838;2023-04-02T09:59:14;-18147.94;;;4.46;100.00
24746;BME280;12845;52.042;6.838;2023-04-02T10:01:44;-18147.38;;;4.44;100.00
24746;BME280;12845;52.042;6.838;2023-04-02T10:06:56;-18152.06;;;4.61;100.00
24746;BME280;12845;52.042;6.838;2023-04-02T10:09:36;-18157.72;;;4.82;100.00
24746;BME280;12845;52.042;6.838;2023-04-02T10:12:05;-18160.09;;;4.91;100.00
24746;BME280;12845;52.042;6.838;2023-04-02T10:14:37;-18158.97;;;4.87;100.00
24746;BME280;12845;52.042;6.838;2023-04-02T10:19:38;-18157.47;;;4.81;100.00
24746;BME280;12845;52.042;6.838;2023-04-02T10:22:14;-18162.84;;;5.01;100.00
24746;BME280;12845;52.042;6.838;2023-04-02T10:24:40;-18165.88;;;5.12;100.00
24746;BME280;12845;52.042;6.838;2023-04-02T10:32:47;-18188.22;;;5.95;100.00
24746;BME280;12845;52.042;6.838;2023-04-02T10:35:31;-18188.22;;;5.95;100.00
24746;BME280;12845;52.042;6.838;2023-04-02T10:38:11;-18194.44;;;6.18;100.00
24746;BME280;12845;52.042;6.838;2023-04-02T10:43:52;-18205.88;;;6.61;100.00
24746;BME280;12845;52.042;6.838;2023-04-02T10:49:37;-18212.78;;;6.86;100.00
24746;BME280;12845;52.042;6.838;2023-04-02T10:55:17;-18226.00;;;7.35;100.00
24746;BME280;12845;52.042;6.838;2023-04-02T10:57:44;-18232.22;;;7.58;100.00
24746;BME280;12845;52.042;6.838;2023-04-02T11:05:51;-18237.59;;;7.78;100.00
24746;BME280;12845;52.042;6.838;2023-04-02T11:08:24;-18236.06;;;7.73;100.00
24746;BME280;12845;52.042;6.838;2023-04-02T11:11:09;-18238.97;;;7.83;100.00
24746;BME280;12845;52.042;6.838;2023-04-02T11:13:55;-18238.28;;;7.81;100.00
24746;BME280;12845;52.042;6.838;2023-04-02T11:16:23;-18238.00;;;7.80;100.00
24746;BME280;12845;52.042;6.838;2023-04-02T11:24:04;-18242.25;;;7.96;100.00
24746;BME280;12845;52.042;6.838;2023-04-02T11:29:26;-18232.06;;;7.58;100.00
24746;BME280;12845;52.042;6.838;2023-04-02T11:32:24;-18235.94;;;7.72;100.00
24746;BME280;12845;52.042;6.838;2023-04-02T11:37:42;-18243.09;;;7.99;100.00
24746;BME280;12845;52.042;6.838;2023-04-02T11:42:40;-18249.69;;;8.23;100.00
24746;BME280;12845;52.042;6.838;2023-04-02T11:50:43;-18259.88;;;8.61;100.00
24746;BME280;12845;52.042;6.838;2023-04-02T12:11:50;-18258.50;;;8.56;100.00
24746;BME280;12845;52.042;6.838;2023-04-02T12:17:01;-18271.72;;;9.05;100.00
24746;BME280;12845;52.042;6.838;2023-04-02T12:19:30;-18272.97;;;9.10;100.00
24746;BME280;12845;52.042;6.838;2023-04-02T12:21:57;-18272.69;;;9.09;100.00
24746;BME280;12845;52.042;6.838;2023-04-02T12:24:25;-18266.09;;;8.84;100.00
24746;BME280;12845;52.042;6.838;2023-04-02T12:27:16;-18272.41;;;9.08;100.00
24746;BME280;12845;52.042;6.838;2023-04-02T12:29:42;-18268.56;;;8.93;100.00
24746;BME280;12845;52.042;6.838;2023-04-02T12:32:24;-18272.81;;;9.09;100.00
24746;BME280;12845;52.042;6.838;2023-04-02T12:34:51;-18267.31;;;8.89;100.00
24746;BME280;12845;52.042;6.838;2023-04-02T12:37:23;-18265.94;;;8.84;100.00
24746;BME280;12845;52.042;6.838;2023-04-02T12:40:15;-18269.66;;;8.97;100.00
24746;BME280;12845;52.042;6.838;2023-04-02T12:42:41;-18274.63;;;9.16;100.00
24746;BME280;12845;52.042;6.838;2023-04-02T12:45:24;-18278.06;;;9.29;100.00
24746;BME280;12845;52.042;6.838;2023-04-02T12:47:50;-18287.41;;;9.63;100.00
24746;BME280;12845;52.042;6.838;2023-04-02T12:50:18;-18288.22;;;9.66;100.00
24746;BME280;12845;52.042;6.838;2023-04-02T12:52:49;-18287.69;;;9.64;100.00
24746;BME280;12845;52.042;6.838;2023-04-02T12:55:20;-18285.75;;;9.57;100.00
24746;BME280;12845;52.042;6.838;2023-04-02T12:57:46;-18290.69;;;9.76;100.00
24746;BME280;12845;52.042;6.838;2023-04-02T13:02:48;-18291.38;;;9.78;100.00
24746;BME280;12845;52.042;6.838;2023-04-02T13:05:52;-18294.81;;;9.91;100.00
24746;BME280;12845;52.042;6.838;2023-04-02T13:08:24;-18299.63;;;10.09;100.00
24746;BME280;12845;52.042;6.838;2023-04-02T13:10:58;-18303.63;;;10.24;100.00
24746;BME280;12845;52.042;6.838;2023-04-02T13:13:27;-18305.81;;;10.32;100.00
24746;BME280;12845;52.042;6.838;2023-04-02T13:16:23;-18309.81;;;10.47;100.00
24746;BME280;12845;52.042;6.838;2023-04-02T13:18:49;-18310.78;;;10.50;100.00
24746;BME280;12845;52.042;6.838;2023-04-02T13:23:41;-18315.31;;;10.67;100.00
24746;BME280;12845;52.042;6.838;2023-04-02T13:26:21;-18314.47;;;10.64;100.00
24746;BME280;12845;52.042;6.838;2023-04-02T13:29:18;-18318.06;;;10.77;100.00
24746;BME280;12845;52.042;6.838;2023-04-02T13:31:45;-18322.03;;;10.92;100.00
24746;BME280;12845;52.042;6.838;2023-04-02T13:34:10;-18318.59;;;10.79;100.00
24746;BME280;12845;52.042;6.838;2023-04-02T13:36:35;-18322.31;;;10.93;100.00
24746;BME280;12845;52.042;6.838;2023-04-02T13:39:01;-18310.22;;;10.48;100.00
24746;BME280;12845;52.042;6.838;2023-04-02T13:41:28;-18311.88;;;10.54;100.00
24746;BME280;12845;52.042;6.838;2023-04-02T13:43:57;-18314.22;;;10.63;100.00
24746;BME280;12845;52.042;6.838;2023-04-02T13:46:25;-18310.50;;;10.49;100.00
24746;BME280;12845;52.042;6.838;2023-04-02T13:48:51;-18313.66;;;10.61;100.00
24746;BME280;12845;52.042;6.838;2023-04-02T13:51:18;-18322.03;;;10.92;100.00
24746;BME280;12845;52.042;6.838;2023-04-02T13:53:51;-18329.03;;;11.18;100.00
24746;BME280;12845;52.042;6.838;2023-04-02T13:56:18;-18328.91;;;11.18;100.00
24746;BME280;12845;52.042;6.838;2023-04-02T13:58:44;-18332.19;;;11.30;100.00
24746;BME280;12845;52.042;6.838;2023-04-02T14:01:10;-18335.09;;;11.41;100.00
24746;BME280;12845;52.042;6.838;2023-04-02T14:03:37;-18336.03;;;11.44;100.00
24746;BME280;12845;52.042;6.838;2023-04-02T14:06:23;-18342.34;;;11.68;100.00
24746;BME280;12845;52.042;6.838;2023-04-02T14:09:10;-18343.19;;;11.71;100.00
24746;BME280;12845;52.042;6.838;2023-04-02T14:12:08;-18341.94;;;11.66;100.00
24746;BME280;12845;52.042;6.838;2023-04-02T14:14:45;-18323.56;;;10.98;100.00
24746;BME280;12845;52.042;6.838;2023-04-02T14:23:00;-18319.28;;;10.82;100.00
24746;BME280;12845;52.042;6.838;2023-04-02T14:28:27;-18328.34;;;11.16;100.00
24746;BME280;12845;52.042;6.838;2023-04-02T14:34:05;-18326.72;;;11.10;100.00
24746;BME280;12845;52.042;6.838;2023-04-02T14:42:12;-18334.94;;;11.40;100.00
24746;BME280;12845;52.042;6.838;2023-04-02T14:44:48;-18341.94;;;11.66;100.00
24746;BME280;12845;52.042;6.838;2023-04-02T14:47:18;-18349.09;;;11.93;100.00
24746;BME280;12845;52.042;6.838;2023-04-02T14:49:48;-18336.88;;;11.47;100.00
24746;BME280;12845;52.042;6.838;2023-04-02T14:52:20;-18330.69;;;11.24;100.00
24746;BME280;12845;52.042;6.838;2023-04-02T14:55:01;-18336.31;;;11.45;100.00
24746;BME280;12845;52.042;6.838;2023-04-02T14:57:42;-18341.25;;;11.64;100.00
24746;BME280;12845;52.042;6.838;2023-04-02T15:02:50;-18353.75;;;12.10;100.00
24746;BME280;12845;52.042;6.838;2023-04-02T15:05:27;-18351.69;;;12.03;100.00
24746;BME280;12845;52.042;6.838;2023-04-02T15:07:59;-18357.19;;;12.23;100.00
24746;BME280;12845;52.042;6.838;2023-04-02T15:10:50;-18360.06;;;12.34;100.00
24746;BME280;12845;52.042;6.838;2023-04-02T15:13:21;-18362.13;;;12.41;100.00
24746;BME280;12845;52.042;6.838;2023-04-02T15:15:52;-18363.22;;;12.46;100.00
24746;BME280;12845;52.042;6.838;2023-04-02T15:18:20;-18362.41;;;12.42;100.00
24746;BME280;12845;52.042;6.838;2023-04-02T15:20:56;-18350.47;;;11.98;100.00
24746;BME280;12845;52.042;6.838;2023-04-02T15:26:29;-18351.00;;;12.00;100.00
24746;BME280;12845;52.042;6.838;2023-04-02T15:29:32;-18354.16;;;12.12;100.00
24746;BME280;12845;52.042;6.838;2023-04-02T15:32:15;-18353.19;;;12.08;100.00
24746;BME280;12845;52.042;6.838;2023-04-02T15:34:53;-18357.03;;;12.23;100.00
24746;BME280;12845;52.042;6.838;2023-04-02T15:37:30;-18355.69;;;12.17;100.00
24746;BME280;12845;52.042;6.838;2023-04-02T15:42:32;-18360.34;;;12.35;100.00
24746;BME280;12845;52.042;6.838;2023-04-02T15:45:14;-18360.75;;;12.36;100.00
24746;BME280;12845;52.042;6.838;2023-04-02T15:50:45;-18367.34;;;12.61;100.00
24746;BME280;12845;52.042;6.838;2023-04-02T15:53:38;-18366.91;;;12.59;100.00
24746;BME280;12845;52.042;6.838;2023-04-02T15:58:55;-18363.50;;;12.47;100.00
24746;BME280;12845;52.042;6.838;2023-04-02T16:04:20;-18358.28;;;12.27;100.00
24746;BME280;12845;52.042;6.838;2023-04-02T16:07:00;-18353.75;;;12.10;100.00
24746;BME280;12845;52.042;6.838;2023-04-02T16:12:17;-18355.00;;;12.15;100.00
24746;BME280;12845;52.042;6.838;2023-04-02T16:14:48;-18346.34;;;11.83;100.00
24746;BME280;12845;52.042;6.838;2023-04-02T16:17:36;-18346.88;;;11.85;100.00
24746;BME280;12845;52.042;6.838;2023-04-02T16:20:17;-18342.91;;;11.70;100.00
24746;BME280;12845;52.042;6.838;2023-04-02T16:22:49;-18346.34;;;11.83;100.00
24746;BME280;12845;52.042;6.838;2023-04-02T16:25:18;-18346.19;;;11.82;100.00